Time;durP1;ratioP1;P1;durP2;ratioP2;P2;SDS_P1;SDS_P2;PMS_P1;PMS_P2;Temp;Humidity;BMP_temperature;BMP_pressure;BME280_temperature;BME280_humidity;BME280_pressure;Samples;Min_cycle;Max_cycle;Signal;HPM_P1;HPM_P2
2023/07/17 00:01:35;;;;;;;12.32;2.42;;;14.70;99.90;;;;;;5134329;27;20038;-66
2023/07/17 00:04:01;;;;;;;10.00;2.70;;;14.70;99.90;;;;;;5134486;27;20046;-67
2023/07/17 00:06:27;;;;;;;10.23;2.72;;;14.70;99.90;;;;;;5132739;27;20042;-66
2023/07/17 00:08:52;;;;;;;11.10;2.80;;;14.80;99.90;;;;;;5132703;27;20491;-66
2023/07/17 00:11:18;;;;;;;9.55;2.88;;;14.70;99.90;;;;;;5135215;27;20038;-65
2023/07/17 00:13:44;;;;;;;10.93;2.75;;;14.90;99.90;;;;;;5133450;27;20046;-65
2023/07/17 00:16:10;;;;;;;11.10;2.63;;;14.70;99.90;;;;;;5133959;27;20035;-66
2023/07/17 00:18:35;;;;;;;11.75;2.83;;;14.70;99.90;;;;;;5133401;27;20041;-65
2023/07/17 00:21:02;;;;;;;16.17;3.50;;;14.80;99.90;;;;;;5134480;27;20103;-65
2023/07/17 00:23:28;;;;;;;14.70;3.55;;;15.00;99.90;;;;;;5132624;27;20039;-66
2023/07/17 00:25:53;;;;;;;12.63;3.05;;;14.90;99.90;;;;;;5133281;27;20050;-66
2023/07/17 00:28:19;;;;;;;11.05;2.72;;;14.90;99.90;;;;;;5133005;27;20043;-66
2023/07/17 00:30:45;;;;;;;11.02;2.53;;;15.10;99.90;;;;;;5134344;27;20026;-65
2023/07/17 00:33:11;;;;;;;10.45;2.83;;;15.00;99.90;;;;;;5133914;27;20285;-66
2023/07/17 00:35:37;;;;;;;9.90;2.78;;;15.10;99.90;;;;;;5133815;27;20565;-65
2023/07/17 00:38:04;;;;;;;10.23;2.72;;;15.20;99.90;;;;;;5133811;27;20270;-66
2023/07/17 00:40:30;;;;;;;15.65;2.78;;;15.10;99.90;;;;;;5134070;27;20051;-66
2023/07/17 00:43:00;;;;;;;9.43;2.53;;;15.10;99.90;;;;;;5116115;27;20811;-66
2023/07/17 00:45:33;;;;;;;18.20;3.38;;;15.40;99.90;;;;;;5134494;27;20050;-66
2023/07/17 00:47:59;;;;;;;11.75;2.70;;;15.40;99.90;;;;;;5133471;27;20244;-65
2023/07/17 00:50:26;;;;;;;13.43;2.72;;;15.30;99.90;;;;;;5115622;27;20047;-66
2023/07/17 00:52:52;;;;;;;12.43;2.80;;;15.50;99.90;;;;;;5134372;27;20068;-67
2023/07/17 00:55:19;;;;;;;12.20;2.80;;;15.60;99.90;;;;;;5132185;27;20034;-66
2023/07/17 00:57:45;;;;;;;11.35;2.38;;;15.70;99.90;;;;;;5133689;27;20353;-66
2023/07/17 01:00:13;;;;;;;15.07;3.60;;;15.60;99.90;;;;;;5136102;27;20047;-66
2023/07/17 01:02:39;;;;;;;10.43;2.60;;;15.50;99.90;;;;;;5135828;27;20367;-65
2023/07/17 01:05:05;;;;;;;11.65;2.70;;;15.60;99.90;;;;;;5132867;27;20042;-66
2023/07/17 01:07:31;;;;;;;9.30;3.25;;;15.50;99.90;;;;;;5114284;27;20043;-66
2023/07/17 01:09:57;;;;;;;9.82;2.45;;;15.40;99.90;;;;;;5133399;27;20041;-65
2023/07/17 01:12:23;;;;;;;9.38;2.85;;;15.40;99.90;;;;;;5133596;27;20038;-65
2023/07/17 01:14:49;;;;;;;7.07;2.30;;;15.40;99.90;;;;;;5131734;27;20047;-66
2023/07/17 01:17:14;;;;;;;9.65;2.17;;;13.50;99.90;;;;;;5132083;27;20049;-65
2023/07/17 01:19:40;;;;;;;7.30;2.05;;;15.20;99.90;;;;;;5113036;27;20059;-66
2023/07/17 01:22:31;;;;;;;9.57;2.85;;;15.10;99.90;;;;;;5097889;27;20503;-65
2023/07/17 01:24:57;;;;;;;7.78;2.38;;;15.10;99.90;;;;;;5107670;27;20706;-65
2023/07/17 01:27:22;;;;;;;7.20;1.88;;;15.10;99.90;;;;;;5131920;27;20035;-65
2023/07/17 01:29:48;;;;;;;7.80;2.42;;;15.10;99.90;;;;;;5133366;27;20035;-65
2023/07/17 01:32:15;;;;;;;8.00;2.50;;;15.00;99.90;;;;;;5131717;27;20054;-66
2023/07/17 01:34:41;;;;;;;8.30;2.33;;;15.00;99.90;;;;;;5132575;27;20042;-66
2023/07/17 01:37:08;;;;;;;9.38;2.97;;;15.00;99.90;;;;;;5131921;27;20471;-66
2023/07/17 01:39:33;;;;;;;8.80;2.20;;;15.00;99.90;;;;;;5131159;27;20607;-65
2023/07/17 01:41:59;;;;;;;8.55;2.65;;;15.00;99.90;;;;;;5131646;27;20038;-66
2023/07/17 01:44:28;;;;;;;7.75;2.25;;;14.80;99.90;;;;;;5111039;27;20047;-65
2023/07/17 01:46:54;;;;;;;11.38;2.60;;;15.00;99.90;;;;;;5131635;27;20149;-65
2023/07/17 01:49:20;;;;;;;12.25;2.28;;;14.90;99.90;;;;;;5111848;27;20038;-65
2023/07/17 01:51:46;;;;;;;11.43;2.78;;;14.90;99.90;;;;;;5131018;27;20045;-65
2023/07/17 01:54:12;;;;;;;7.97;2.60;;;14.70;99.90;;;;;;5132828;27;20510;-65
2023/07/17 01:56:37;;;;;;;13.25;2.92;;;14.80;99.90;;;;;;5131044;27;20035;-65
2023/07/17 01:59:03;;;;;;;13.52;2.53;;;14.90;99.90;;;;;;5132608;27;20095;-65
2023/07/17 02:01:29;;;;;;;6.65;2.30;;;14.80;99.90;;;;;;5132402;27;20059;-65
2023/07/17 02:03:55;;;;;;;9.07;2.58;;;14.90;99.90;;;;;;5131591;27;20057;-65
2023/07/17 02:06:20;;;;;;;9.50;2.83;;;14.80;99.90;;;;;;5130670;27;20451;-65
2023/07/17 02:08:46;;;;;;;13.68;3.00;;;14.80;99.90;;;;;;5132542;27;20204;-65
2023/07/17 02:11:12;;;;;;;10.27;2.90;;;14.50;99.90;;;;;;5081784;27;20412;-65
2023/07/17 02:13:38;;;;;;;11.32;2.63;;;14.80;99.90;;;;;;5132420;27;20041;-65
2023/07/17 02:16:04;;;;;;;12.30;2.80;;;14.80;99.90;;;;;;5131853;27;20129;-65
2023/07/17 02:18:31;;;;;;;8.48;2.63;;;14.80;99.90;;;;;;5132350;27;21440;-65
2023/07/17 02:20:56;;;;;;;11.02;3.75;;;14.60;99.90;;;;;;5133064;27;20525;-65
2023/07/17 02:23:22;;;;;;;8.40;2.75;;;14.40;99.90;;;;;;5130851;27;20099;-66
2023/07/17 02:25:48;;;;;;;11.73;2.95;;;14.70;99.90;;;;;;5132050;27;20848;-65
2023/07/17 02:28:15;;;;;;;10.85;2.92;;;14.60;99.90;;;;;;5132724;27;20407;-65
2023/07/17 02:30:41;;;;;;;11.38;3.10;;;14.40;99.90;;;;;;5132961;27;20161;-65
2023/07/17 02:33:07;;;;;;;11.80;3.00;;;14.60;99.90;;;;;;5130529;27;20053;-65
2023/07/17 02:35:32;;;;;;;12.20;2.72;;;14.50;99.90;;;;;;5112559;27;20039;-64
2023/07/17 02:37:58;;;;;;;11.55;3.00;;;14.40;99.90;;;;;;5132473;27;20039;-65
2023/07/17 02:40:24;;;;;;;7.95;2.78;;;14.50;99.90;;;;;;5130060;27;20047;-65
2023/07/17 02:42:50;;;;;;;10.00;2.80;;;14.40;99.90;;;;;;5111380;27;20046;-63
2023/07/17 02:45:15;;;;;;;10.70;3.10;;;14.30;99.90;;;;;;5132520;27;20126;-66
2023/07/17 02:47:41;;;;;;;9.07;3.00;;;14.30;99.90;;;;;;5131209;27;20054;-65
2023/07/17 02:50:07;;;;;;;9.65;2.85;;;14.30;99.90;;;;;;5130846;27;20035;-65
2023/07/17 02:52:36;;;;;;;11.90;2.90;;;14.20;99.90;;;;;;5131066;27;20042;-65
2023/07/17 02:55:06;;;;;;;8.70;2.85;;;14.30;99.90;;;;;;5132395;27;20046;-65
2023/07/17 02:57:34;;;;;;;9.65;2.92;;;14.40;99.90;;;;;;5130554;27;20050;-65
2023/07/17 03:00:00;;;;;;;8.10;2.40;;;14.30;99.90;;;;;;5132959;27;20043;-65
2023/07/17 03:02:26;;;;;;;8.88;3.00;;;14.30;99.90;;;;;;5130693;27;20414;-65
2023/07/17 03:04:52;;;;;;;10.70;3.13;;;14.30;99.90;;;;;;5130512;27;20047;-64
2023/07/17 03:07:17;;;;;;;12.05;3.10;;;14.20;99.90;;;;;;5135255;27;20042;-65
2023/07/17 03:09:43;;;;;;;13.10;3.10;;;14.20;99.90;;;;;;5134435;27;20475;-64
2023/07/17 03:12:09;;;;;;;13.70;3.45;;;16.50;99.90;;;;;;5133830;27;20031;-64
2023/07/17 03:14:35;;;;;;;12.45;2.55;;;14.20;99.90;;;;;;5136118;27;20049;-64
2023/07/17 03:17:00;;;;;;;9.48;2.83;;;14.10;99.90;;;;;;5134439;27;20066;-64
2023/07/17 03:19:26;;;;;;;11.77;3.20;;;14.20;99.90;;;;;;5133632;27;20099;-64
2023/07/17 03:21:52;;;;;;;11.05;3.33;;;14.30;99.90;;;;;;5133786;27;20511;-63
2023/07/17 03:24:18;;;;;;;8.90;2.80;;;14.20;99.90;;;;;;5135427;27;20066;-64
2023/07/17 03:26:45;;;;;;;10.23;3.00;;;14.20;99.90;;;;;;5134824;27;20395;-64
2023/07/17 03:29:11;;;;;;;11.93;3.85;;;14.20;99.90;;;;;;5133851;27;20045;-64
2023/07/17 03:31:36;;;;;;;10.02;3.30;;;14.20;99.90;;;;;;5135740;27;20050;-63
2023/07/17 03:34:02;;;;;;;11.70;3.33;;;14.30;99.90;;;;;;5135659;27;20070;-64
2023/07/17 03:36:27;;;;;;;11.77;3.38;;;14.20;99.90;;;;;;5112811;27;20548;-64
2023/07/17 03:38:53;;;;;;;16.67;4.30;;;14.30;99.90;;;;;;5114151;27;20042;-64
2023/07/17 03:41:21;;;;;;;10.27;3.90;;;14.10;99.90;;;;;;5134400;27;20046;-64
2023/07/17 03:43:47;;;;;;;9.70;3.55;;;14.00;99.90;;;;;;5117395;27;20079;-64
2023/07/17 03:46:16;;;;;;;10.73;3.70;;;14.20;99.90;;;;;;5135036;27;20407;-64
2023/07/17 03:48:41;;;;;;;16.30;4.40;;;13.40;99.90;;;;;;5114442;27;20098;-64
2023/07/17 03:51:07;;;;;;;11.52;4.22;;;14.10;99.90;;;;;;5115434;27;20039;-64
2023/07/17 03:53:33;;;;;;;10.07;3.47;;;14.00;99.90;;;;;;5134064;27;20039;-64
2023/07/17 03:55:59;;;;;;;13.20;4.30;;;14.10;99.90;;;;;;5135302;27;20077;-64
2023/07/17 03:58:24;;;;;;;10.70;3.83;;;14.10;99.90;;;;;;5134143;27;20042;-64
2023/07/17 04:00:50;;;;;;;17.63;5.35;;;13.90;99.90;;;;;;5134754;27;20073;-64
2023/07/17 04:03:16;;;;;;;15.45;4.00;;;14.00;99.90;;;;;;5134415;27;20035;-64
2023/07/17 04:05:43;;;;;;;8.70;3.40;;;14.10;99.90;;;;;;5116529;27;20515;-64
2023/07/17 04:08:09;;;;;;;14.98;3.78;;;14.00;99.90;;;;;;5134335;27;20483;-63
2023/07/17 04:10:34;;;;;;;14.38;4.13;;;14.10;99.90;;;;;;5132440;27;20070;-64
2023/07/17 04:13:00;;;;;;;15.93;3.65;;;14.10;99.90;;;;;;5113866;27;20038;-64
2023/07/17 04:15:26;;;;;;;11.98;3.25;;;14.00;99.90;;;;;;5133731;27;20475;-64
2023/07/17 04:17:51;;;;;;;13.85;3.53;;;14.20;99.90;;;;;;5098498;27;20506;-64
2023/07/17 04:20:19;;;;;;;11.05;3.20;;;14.00;99.90;;;;;;5132647;27;20628;-63
2023/07/17 04:22:44;;;;;;;11.40;3.20;;;13.70;99.90;;;;;;5134182;27;20495;-64
2023/07/17 04:25:10;;;;;;;12.20;3.30;;;14.10;99.90;;;;;;5133871;27;20043;-64
2023/07/17 04:27:36;;;;;;;15.27;3.42;;;14.20;99.90;;;;;;5132771;27;20155;-66
2023/07/17 04:30:02;;;;;;;12.15;3.47;;;15.40;99.90;;;;;;5133701;27;20370;-64
2023/07/17 04:32:27;;;;;;;13.43;3.20;;;14.10;99.90;;;;;;5134353;27;20533;-64
2023/07/17 04:34:53;;;;;;;15.80;3.55;;;14.20;99.90;;;;;;5132227;27;20042;-63
2023/07/17 04:37:19;;;;;;;15.18;3.50;;;14.30;99.90;;;;;;5133388;27;20047;-63
2023/07/17 04:39:45;;;;;;;11.38;2.90;;;14.30;99.90;;;;;;5132432;27;20057;-63
2023/07/17 04:42:10;;;;;;;12.55;2.97;;;14.50;99.90;;;;;;5133424;27;20035;-64
2023/07/17 04:44:36;;;;;;;15.10;3.38;;;14.50;99.90;;;;;;5131465;27;20171;-63
2023/07/17 04:47:02;;;;;;;13.75;3.08;;;14.50;99.90;;;;;;5133452;27;20503;-63
2023/07/17 04:49:28;;;;;;;11.43;3.55;;;13.50;99.90;;;;;;5115099;27;20046;-64
2023/07/17 04:51:53;;;;;;;8.40;3.00;;;14.80;99.90;;;;;;5134490;27;20061;-63
2023/07/17 04:54:19;;;;;;;15.38;3.92;;;14.60;99.90;;;;;;5131378;27;20136;-64
2023/07/17 04:56:45;;;;;;;15.75;3.83;;;14.60;99.90;;;;;;5133106;27;20733;-63
2023/07/17 04:59:11;;;;;;;10.45;2.92;;;14.80;99.90;;;;;;5132420;27;20487;-64
2023/07/17 05:01:36;;;;;;;12.65;3.42;;;15.10;99.90;;;;;;5135099;27;20046;-63
2023/07/17 05:04:03;;;;;;;12.90;3.58;;;15.10;99.90;;;;;;5132431;27;20039;-64
2023/07/17 05:06:29;;;;;;;10.85;3.38;;;15.20;99.90;;;;;;5133356;27;20446;-63
2023/07/17 05:08:55;;;;;;;10.60;3.80;;;15.20;99.90;;;;;;5134392;27;20045;-63
2023/07/17 05:11:20;;;;;;;13.10;4.05;;;15.30;99.90;;;;;;5133559;27;20487;-64
2023/07/17 05:13:46;;;;;;;14.50;3.40;;;15.30;99.90;;;;;;5114625;27;20072;-64
2023/07/17 05:16:12;;;;;;;14.68;3.85;;;15.30;99.90;;;;;;5135504;27;20134;-63
2023/07/17 05:18:37;;;;;;;16.85;4.80;;;15.40;99.90;;;;;;5133502;27;20247;-64
2023/07/17 05:21:03;;;;;;;11.85;2.97;;;15.40;99.90;;;;;;5131666;27;20027;-63
2023/07/17 05:23:30;;;;;;;13.63;3.58;;;15.50;99.90;;;;;;5132407;27;20509;-63
2023/07/17 05:25:58;;;;;;;15.60;3.42;;;15.60;99.90;;;;;;5133485;27;20041;-63
2023/07/17 05:28:24;;;;;;;11.65;3.47;;;15.70;99.90;;;;;;5130582;27;20038;-64
2023/07/17 05:30:54;;;;;;;14.05;3.60;;;15.80;99.90;;;;;;5133354;27;20042;-64
2023/07/17 05:33:24;;;;;;;14.40;3.58;;;16.00;99.90;;;;;;5131754;27;20047;-64
2023/07/17 05:35:50;;;;;;;13.38;4.15;;;16.20;99.90;;;;;;5133311;27;20453;-63
2023/07/17 05:38:16;;;;;;;13.93;4.05;;;16.30;99.90;;;;;;5132726;27;20051;-64
2023/07/17 05:40:42;;;;;;;17.60;4.10;;;16.30;99.90;;;;;;5133512;27;20103;-63
2023/07/17 05:43:08;;;;;;;15.30;4.70;;;16.40;99.90;;;;;;5113448;27;20037;-64
2023/07/17 05:45:34;;;;;;;12.52;3.30;;;16.30;99.90;;;;;;5130808;27;20051;-64
2023/07/17 05:48:00;;;;;;;16.30;4.20;;;16.40;99.90;;;;;;5131606;27;22893;-64
2023/07/17 05:50:26;;;;;;;13.85;3.20;;;16.40;99.90;;;;;;5133081;27;20057;-64
2023/07/17 05:52:52;;;;;;;13.00;3.63;;;16.50;99.90;;;;;;5131631;27;20057;-64
2023/07/17 05:55:18;;;;;;;14.20;4.28;;;16.40;99.90;;;;;;5131054;27;20041;-64
2023/07/17 05:57:43;;;;;;;13.15;3.58;;;16.40;99.90;;;;;;5133710;27;20042;-63
2023/07/17 06:00:14;;;;;;;17.88;4.72;;;16.80;99.90;;;;;;5132101;27;21249;-63
2023/07/17 06:02:43;;;;;;;11.65;3.50;;;16.60;99.90;;;;;;5132968;27;20039;-64
2023/07/17 06:05:10;;;;;;;14.30;4.00;;;16.80;99.90;;;;;;5131673;27;20358;-64
2023/07/17 06:07:37;;;;;;;20.88;5.22;;;16.80;99.90;;;;;;5129723;27;20043;-64
2023/07/17 06:10:03;;;;;;;11.85;4.00;;;16.90;99.90;;;;;;5131141;27;20115;-63
2023/07/17 06:12:28;;;;;;;13.88;3.90;;;17.00;99.90;;;;;;5096804;27;20549;-65
2023/07/17 06:14:55;;;;;;;17.70;4.32;;;17.10;99.90;;;;;;5132176;27;20054;-64
2023/07/17 06:17:22;;;;;;;18.88;4.80;;;16.90;99.90;;;;;;5131946;27;20073;-65
2023/07/17 06:19:48;;;;;;;16.13;4.13;;;17.10;99.90;;;;;;5130436;27;20336;-64
2023/07/17 06:22:13;;;;;;;12.75;4.20;;;17.00;99.90;;;;;;5131362;27;20061;-63
2023/07/17 06:24:39;;;;;;;14.73;4.50;;;17.30;99.90;;;;;;5130908;27;20043;-65
2023/07/17 06:27:05;;;;;;;16.00;4.72;;;17.60;99.90;;;;;;5130941;27;20137;-64
2023/07/17 06:29:31;;;;;;;12.75;4.82;;;17.80;99.90;;;;;;5130278;27;20519;-64
2023/07/17 06:31:56;;;;;;;11.73;3.47;;;18.00;99.90;;;;;;5132802;27;20442;-64
2023/07/17 06:34:22;;;;;;;15.57;4.68;;;18.30;99.90;;;;;;5130393;27;20074;-64
2023/07/17 06:36:51;;;;;;;14.00;4.93;;;18.20;99.90;;;;;;5131663;27;20399;-64
2023/07/17 06:39:17;;;;;;;14.50;4.57;;;18.20;99.90;;;;;;5131838;27;20359;-64
2023/07/17 06:41:43;;;;;;;13.45;4.90;;;18.00;99.90;;;;;;5132780;27;20034;-64
2023/07/17 06:44:08;;;;;;;16.80;4.75;;;17.00;99.90;;;;;;5114958;27;20070;-64
2023/07/17 06:46:34;;;;;;;15.07;5.10;;;17.80;99.90;;;;;;5130615;27;20066;-63
2023/07/17 06:49:00;;;;;;;12.85;5.03;;;17.60;99.90;;;;;;5132790;27;20384;-63
2023/07/17 06:51:26;;;;;;;17.33;4.95;;;17.20;99.90;;;;;;5131745;27;20540;-63
2023/07/17 06:53:52;;;;;;;13.80;4.45;;;16.90;99.90;;;;;;5133257;27;20049;-63
2023/07/17 06:56:18;;;;;;;14.43;5.03;;;16.80;99.90;;;;;;5130732;27;20050;-63
2023/07/17 06:58:44;;;;;;;18.35;5.78;;;16.60;99.90;;;;;;5130174;27;20039;-62
2023/07/17 07:01:11;;;;;;;13.73;4.75;;;16.40;99.90;;;;;;5131853;27;20041;-62
2023/07/17 07:03:37;;;;;;;12.25;4.60;;;16.30;99.90;;;;;;5132751;27;20043;-62
2023/07/17 07:06:04;;;;;;;15.57;5.18;;;16.10;99.90;;;;;;5132017;27;20099;-62
2023/07/17 07:08:31;;;;;;;13.05;4.32;;;16.30;99.90;;;;;;5131869;27;20058;-63
2023/07/17 07:10:59;;;;;;;10.00;4.45;;;16.20;99.90;;;;;;5130196;27;20546;-62
2023/07/17 07:13:26;;;;;;;10.57;3.55;;;16.30;99.90;;;;;;5132363;27;20087;-62
2023/07/17 07:15:52;;;;;;;11.57;3.25;;;16.00;99.90;;;;;;5131881;27;20038;-63
2023/07/17 07:18:18;;;;;;;12.95;3.83;;;15.90;99.90;;;;;;5132358;27;20041;-61
2023/07/17 07:20:45;;;;;;;14.85;4.15;;;15.60;99.90;;;;;;5130862;27;20053;-63
2023/07/17 07:23:11;;;;;;;12.38;4.30;;;15.60;99.90;;;;;;5129901;27;20046;-62
2023/07/17 07:25:37;;;;;;;10.40;3.90;;;15.70;99.90;;;;;;5130190;27;20054;-62
2023/07/17 07:28:04;;;;;;;14.07;4.60;;;15.90;99.90;;;;;;5129628;27;20427;-62
2023/07/17 07:30:30;;;;;;;11.88;4.03;;;17.10;99.90;;;;;;5130416;27;20042;-63
2023/07/17 07:32:56;;;;;;;9.82;3.85;;;18.70;99.90;;;;;;5131254;27;20055;-65
2023/07/17 07:35:22;;;;;;;8.95;4.03;;;19.80;99.90;;;;;;5130726;27;20513;-65
2023/07/17 07:37:48;;;;;;;10.73;3.67;;;20.80;99.90;;;;;;5130063;27;20161;-64
2023/07/17 07:40:15;;;;;;;11.55;4.47;;;21.30;99.90;;;;;;5130953;27;20043;-64
2023/07/17 07:42:41;;;;;;;12.38;3.95;;;21.90;99.90;;;;;;5129861;27;20142;-64
2023/07/17 07:45:09;;;;;;;15.68;4.53;;;21.30;99.90;;;;;;5131237;27;20058;-64
2023/07/17 07:47:35;;;;;;;12.65;4.38;;;20.00;99.90;;;;;;5130804;27;20129;-65
2023/07/17 07:50:00;;;;;;;15.52;4.50;;;20.00;99.90;;;;;;5129842;27;20049;-66
2023/07/17 07:52:27;;;;;;;10.00;4.00;;;19.80;99.90;;;;;;5133668;27;20570;-65
2023/07/17 07:54:53;;;;;;;11.80;4.70;;;19.50;99.90;;;;;;5133886;27;20130;-65
2023/07/17 07:57:19;;;;;;;11.93;4.10;;;19.30;99.90;;;;;;5100045;27;20030;-64
2023/07/17 07:59:45;;;;;;;11.50;4.07;;;20.10;99.90;;;;;;5133901;27;20374;-64
2023/07/17 08:02:11;;;;;;;13.32;3.92;;;20.90;99.90;;;;;;5118029;27;20038;-64
2023/07/17 08:04:37;;;;;;;14.30;3.85;;;21.60;99.90;;;;;;5133393;27;20512;-64
2023/07/17 08:07:03;;;;;;;15.85;3.80;;;21.70;99.90;;;;;;5136926;27;20046;-64
2023/07/17 08:09:29;;;;;;;13.32;3.40;;;21.90;99.90;;;;;;5132939;27;20042;-65
2023/07/17 08:11:55;;;;;;;9.40;3.47;;;22.20;99.90;;;;;;5115424;27;20061;-64
2023/07/17 08:14:21;;;;;;;10.70;3.47;;;22.60;99.90;;;;;;5113176;27;20411;-63
2023/07/17 08:16:48;;;;;;;9.90;3.42;;;23.20;99.90;;;;;;5135689;27;20039;-64
2023/07/17 08:19:14;;;;;;;10.93;3.42;;;23.30;99.90;;;;;;5115411;27;20030;-65
2023/07/17 08:21:39;;;;;;;11.55;3.80;;;22.90;99.90;;;;;;5133940;27;20404;-65
2023/07/17 08:24:05;;;;;;;7.03;2.80;;;22.30;99.90;;;;;;5134212;27;20524;-65
2023/07/17 08:26:31;;;;;;;10.93;3.25;;;21.80;99.90;;;;;;5133792;27;20384;-65
2023/07/17 08:28:57;;;;;;;9.38;3.47;;;21.00;99.90;;;;;;5132759;27;20057;-64
2023/07/17 08:31:23;;;;;;;9.70;3.20;;;20.60;99.90;;;;;;5133349;27;20210;-65
2023/07/17 08:33:49;;;;;;;10.23;3.08;;;20.20;99.90;;;;;;5134721;27;20042;-65
2023/07/17 08:36:15;;;;;;;9.45;2.80;;;19.90;99.90;;;;;;5133345;27;20063;-65
2023/07/17 08:38:40;;;;;;;8.63;2.42;;;19.50;99.90;;;;;;5132854;27;20038;-64
2023/07/17 08:41:07;;;;;;;6.75;2.88;;;19.30;99.90;;;;;;5131764;27;20053;-65
2023/07/17 08:43:34;;;;;;;9.13;2.83;;;19.30;99.90;;;;;;5114934;27;20043;-64
2023/07/17 08:46:01;;;;;;;9.20;2.60;;;19.50;99.90;;;;;;5132664;27;20054;-65
2023/07/17 08:48:28;;;;;;;8.02;2.75;;;19.80;99.90;;;;;;5130712;27;20507;-66
2023/07/17 08:50:56;;;;;;;9.95;2.53;;;19.80;99.90;;;;;;5131871;27;20054;-65
2023/07/17 08:53:24;;;;;;;9.32;2.83;;;19.90;99.90;;;;;;5133979;27;20437;-65
2023/07/17 08:55:53;;;;;;;8.43;2.60;;;20.20;99.90;;;;;;5133260;27;20069;-65
2023/07/17 08:58:20;;;;;;;8.52;2.83;;;19.90;99.90;;;;;;5132892;27;20125;-67
2023/07/17 09:00:48;;;;;;;8.40;3.00;;;19.80;99.90;;;;;;5131370;27;20043;-64
2023/07/17 09:03:13;;;;;;;7.85;2.28;;;19.90;99.90;;;;;;5133211;27;20411;-64
2023/07/17 09:05:39;;;;;;;9.20;3.30;;;19.90;99.90;;;;;;5132202;27;20038;-63
2023/07/17 09:08:05;;;;;;;9.50;2.95;;;19.80;99.90;;;;;;5133487;27;20119;-65
2023/07/17 09:10:31;;;;;;;8.45;3.28;;;19.70;99.90;;;;;;5132054;27;20049;-65
2023/07/17 09:12:58;;;;;;;9.90;2.58;;;19.90;99.90;;;;;;5131547;27;20138;-65
2023/07/17 09:15:26;;;;;;;7.47;2.25;;;19.70;99.90;;;;;;5132406;27;20567;-64
2023/07/17 09:17:52;;;;;;;7.38;2.13;;;19.90;99.90;;;;;;5113510;27;20049;-65
2023/07/17 09:20:19;;;;;;;7.63;2.13;;;19.80;99.90;;;;;;5131359;27;20509;-65
2023/07/17 09:22:46;;;;;;;8.07;2.30;;;19.90;99.90;;;;;;5133988;27;20034;-65
2023/07/17 09:25:12;;;;;;;8.30;2.60;;;20.20;99.90;;;;;;5133428;27;20034;-64
2023/07/17 09:27:49;;;;;;;8.48;2.40;;;20.10;99.90;;;;;;5131816;27;20058;-65
2023/07/17 09:30:17;;;;;;;6.13;2.10;;;20.00;99.90;;;;;;5132676;27;20043;-64
2023/07/17 09:32:44;;;;;;;7.30;1.85;;;20.20;99.90;;;;;;5133141;27;20375;-64
2023/07/17 09:35:13;;;;;;;7.15;2.17;;;20.40;99.90;;;;;;5113564;27;20052;-63
2023/07/17 09:37:43;;;;;;;9.35;2.35;;;20.90;99.90;;;;;;5132847;27;20454;-64
2023/07/17 09:40:13;;;;;;;8.65;2.22;;;21.10;99.90;;;;;;5132258;27;20047;-63
2023/07/17 09:42:51;;;;;;;7.70;2.08;;;21.30;99.90;;;;;;5132118;27;20042;-64
2023/07/17 09:45:19;;;;;;;5.88;1.98;;;21.70;99.90;;;;;;5132200;27;20046;-64
2023/07/17 09:47:49;;;;;;;10.52;2.38;;;21.70;99.90;;;;;;5132275;27;20043;-63
2023/07/17 09:50:15;;;;;;;7.97;2.47;;;21.60;99.90;;;;;;5130741;27;20460;-63
2023/07/17 09:52:44;;;;;;;8.07;2.53;;;21.50;99.90;;;;;;5131100;27;20050;-63
2023/07/17 09:55:10;;;;;;;6.70;2.15;;;21.20;99.90;;;;;;5132039;27;20051;-63
2023/07/17 09:57:38;;;;;;;8.25;2.35;;;21.10;99.90;;;;;;5130023;27;20065;-62
2023/07/17 10:00:19;;;;;;;7.05;2.33;;;20.90;99.90;;;;;;5130733;27;20038;-63
2023/07/17 10:03:00;;;;;;;6.97;2.05;;;20.90;99.90;;;;;;5133048;27;20043;-63
2023/07/17 10:05:26;;;;;;;7.03;2.30;;;20.70;99.90;;;;;;5130486;27;20138;-63
2023/07/17 10:07:53;;;;;;;6.53;2.10;;;20.50;99.90;;;;;;5131065;27;20575;-63
2023/07/17 10:10:19;;;;;;;7.00;2.40;;;20.20;99.90;;;;;;5111781;27;20043;-62
2023/07/17 10:12:46;;;;;;;6.63;1.50;;;20.30;99.90;;;;;;5131856;27;20039;-63
2023/07/17 10:15:14;;;;;;;6.68;2.03;;;20.70;99.90;;;;;;5094178;27;20323;-62
2023/07/17 10:17:40;;;;;;;6.07;2.13;;;20.80;99.90;;;;;;5131242;27;20199;-62
2023/07/17 10:20:08;;;;;;;5.93;2.25;;;21.10;99.90;;;;;;5128929;27;20792;-62
2023/07/17 10:22:45;;;;;;;13.13;2.10;;;21.10;99.90;;;;;;5132205;27;20399;-63
2023/07/17 10:25:17;;;;;;;7.28;1.90;;;20.80;99.90;;;;;;5130705;27;20043;-62
2023/07/17 10:27:47;;;;;;;5.88;2.17;;;20.90;99.90;;;;;;5129611;27;20039;-63
2023/07/17 10:30:23;;;;;;;7.30;2.15;;;20.90;99.90;;;;;;5130093;27;20049;-63
2023/07/17 10:33:07;;;;;;;7.82;2.35;;;21.10;99.90;;;;;;5131775;27;20046;-64
2023/07/17 10:35:48;;;;;;;8.70;2.30;;;20.70;99.90;;;;;;5131310;27;20181;-63
2023/07/17 10:38:18;;;;;;;9.75;2.60;;;20.20;99.90;;;;;;5131587;27;20430;-64
2023/07/17 10:40:45;;;;;;;7.32;2.50;;;20.10;99.90;;;;;;5130153;27;20042;-63
2023/07/17 10:43:11;;;;;;;8.57;2.88;;;20.00;99.90;;;;;;5130495;27;20039;-63
2023/07/17 10:45:37;;;;;;;6.07;2.30;;;20.60;99.90;;;;;;5130664;27;20145;-62
2023/07/17 10:48:05;;;;;;;10.02;2.00;;;20.70;99.90;;;;;;5132516;27;20133;-63
2023/07/17 10:50:30;;;;;;;7.35;2.10;;;21.00;99.90;;;;;;5131415;27;20099;-64
2023/07/17 10:53:03;;;;;;;7.90;2.40;;;20.80;99.90;;;;;;5132432;27;20081;-63
2023/07/17 10:55:30;;;;;;;6.65;2.00;;;20.90;99.90;;;;;;5131306;27;20046;-63
2023/07/17 10:57:57;;;;;;;7.32;2.10;;;21.30;99.90;;;;;;5131730;27;20134;-63
2023/07/17 11:00:23;;;;;;;6.00;2.15;;;21.40;99.90;;;;;;5112677;27;20030;-64
2023/07/17 11:02:49;;;;;;;9.35;2.20;;;21.70;99.90;;;;;;5113092;27;20062;-63
2023/07/17 11:05:15;;;;;;;8.25;2.50;;;21.70;99.90;;;;;;5112827;27;20122;-63
2023/07/17 11:07:41;;;;;;;8.68;2.60;;;22.10;99.90;;;;;;5132064;27;20142;-62
2023/07/17 11:10:15;;;;;;;6.05;2.08;;;21.70;99.90;;;;;;5129859;27;20035;-61
2023/07/17 11:12:42;;;;;;;5.68;2.33;;;22.00;99.90;;;;;;5130786;27;20088;-61
2023/07/17 11:15:15;;;;;;;5.50;2.38;;;22.70;99.90;;;;;;5131221;27;20039;-61
2023/07/17 11:17:41;;;;;;;5.70;1.98;;;22.60;99.90;;;;;;5131258;27;20034;-61
2023/07/17 11:20:08;;;;;;;7.07;1.85;;;22.30;99.90;;;;;;5130478;27;20033;-61
2023/07/17 11:22:34;;;;;;;8.85;2.33;;;22.50;99.90;;;;;;5094667;27;20055;-61
2023/07/17 11:25:00;;;;;;;7.97;2.25;;;22.40;99.90;;;;;;5111635;27;20628;-60
2023/07/17 11:27:26;;;;;;;8.68;2.03;;;22.00;99.90;;;;;;5135448;27;20091;-61
2023/07/17 11:29:51;;;;;;;6.10;2.00;;;22.00;99.90;;;;;;5133741;27;20035;-60
2023/07/17 11:32:21;;;;;;;10.35;2.60;;;22.20;99.90;;;;;;5134516;27;20031;-60
2023/07/17 11:35:02;;;;;;;6.25;1.95;;;22.40;99.90;;;;;;5135931;27;20050;-60
2023/07/17 11:37:34;;;;;;;6.63;2.05;;;23.20;99.90;;;;;;5135378;27;20042;-61
2023/07/17 11:40:08;;;;;;;8.07;2.08;;;23.30;99.90;;;;;;5134400;27;20333;-61
2023/07/17 11:42:56;;;;;;;7.00;1.80;;;22.90;99.90;;;;;;5135495;27;20529;-61
2023/07/17 11:45:26;;;;;;;8.32;1.77;;;22.70;99.90;;;;;;5134385;27;20111;-62
2023/07/17 11:47:54;;;;;;;7.82;1.98;;;22.50;99.90;;;;;;5135387;27;20042;-62
2023/07/17 11:50:27;;;;;;;5.93;1.80;;;22.60;99.90;;;;;;5136864;27;20038;-61
2023/07/17 11:53:11;;;;;;;9.10;3.00;;;22.70;99.90;;;;;;5133808;27;20277;-61
2023/07/17 11:55:39;;;;;;;6.00;2.22;;;22.70;99.90;;;;;;5134225;27;20070;-62
2023/07/17 11:58:36;;;;;;;9.98;2.70;;;21.90;99.90;;;;;;5133209;27;20495;-62
2023/07/17 12:01:02;;;;;;;5.95;2.20;;;21.70;99.90;;;;;;5134930;27;20122;-61
2023/07/17 12:03:29;;;;;;;9.13;2.55;;;21.00;99.90;;;;;;5136689;27;20038;-61
2023/07/17 12:05:54;;;;;;;7.55;2.45;;;20.90;99.90;;;;;;5115997;27;20054;-61
2023/07/17 12:08:20;;;;;;;8.23;2.65;;;21.20;99.90;;;;;;5117939;27;20050;-61
2023/07/17 12:10:46;;;;;;;8.57;2.30;;;21.30;99.90;;;;;;5135873;27;20043;-62
2023/07/17 12:13:12;;;;;;;7.40;2.30;;;21.00;99.90;;;;;;5136192;27;20034;-62
2023/07/17 12:15:37;;;;;;;4.95;1.90;;;21.20;99.90;;;;;;5136091;27;20058;-62
2023/07/17 12:18:03;;;;;;;5.57;1.80;;;21.10;99.90;;;;;;5134542;27;20100;-61
2023/07/17 12:20:32;;;;;;;7.22;2.38;;;21.50;99.90;;;;;;5135750;27;20077;-61
2023/07/17 12:22:58;;;;;;;8.25;2.22;;;21.60;99.90;;;;;;5136248;27;20115;-61
2023/07/17 12:25:24;;;;;;;7.15;2.03;;;21.60;99.90;;;;;;5134912;27;20100;-61
2023/07/17 12:27:50;;;;;;;6.43;1.83;;;21.60;99.90;;;;;;5134839;27;20064;-61
2023/07/17 12:30:20;;;;;;;6.78;2.13;;;21.30;99.90;;;;;;5133774;27;20666;-62
2023/07/17 12:32:46;;;;;;;7.32;2.15;;;20.70;99.90;;;;;;5134362;27;20042;-62
2023/07/17 12:35:12;;;;;;;7.65;2.40;;;20.70;99.90;;;;;;5135409;27;20041;-61
2023/07/17 12:37:37;;;;;;;9.70;2.20;;;20.40;99.90;;;;;;5133839;27;20042;-62
2023/07/17 12:40:04;;;;;;;8.15;1.98;;;20.60;99.90;;;;;;5134025;27;20122;-62